• Join FlightAware (Why Join?)
  • Login
  • US Flag 
05:04AM EST


 

Airport Tracker/Info


-or-


 

Live Flight TrackerFlight Track Log ✈ N3738B ✈ 01-May-2013 ✈ KLAS - KJFK

Flight Track Log - Related Links

Times and Time Zones

All times are in EDT time to prevent confusion due to time zone crossing. See the N3738B flight status page for this flight to view local times or setup timezone preferences in your user account.

Time Position Orientation Groundspeed Altitude Reporting Facility
EDT Latitude Longitude Course Direction KTS MPH feet Rate Location/Type
07:51PM 36.0758 -115.1072 90° East 179 206 3,200  Level Los Angeles Center
07:52PM 36.0767 -115.0217 89° East 254 292 4,800 1,560 Climbing Los Angeles Center
07:53PM 36.0767 -114.9969 90° East 240 276 5,600 2,880 Climbing Los Angeles Center
07:53PM 36.0794 -114.9356 87° East 273 314 7,400 3,180 Climbing Los Angeles Center
07:54PM 36.1833 -114.6913 90° East  Level FlightAware Approximate
07:54PM 36.0861 -114.8833 81° East 273 314 8,900  Level Los Angeles Center
07:55PM 36.1833 -114.5298 90° East  Level FlightAware Approximate
07:55PM 36.1042 -114.7819 78° East 300 345 11,100  Level Los Angeles Center
07:56PM 36.1833 -114.3682 90° East  Level FlightAware Approximate
07:56PM 36.1222 -114.6678 79° East 335 386 13,400  Level Los Angeles Center
07:57PM 36.1833 -114.2066 90° East  Level FlightAware Approximate
07:57PM 36.1422 -114.5478 78° East 355 409 15,400  Level Los Angeles Center
07:58PM 36.1639 -114.4178 78° East 382 440 17,700 1,920 Climbing Los Angeles Center
07:59PM 36.1908 -114.2567 78° East 400 460 19,400 1,380 Climbing Los Angeles Center
08:00PM 36.2333 -114.1122 70° East 444 511 20,700 1,260 Climbing Los Angeles Center
08:01PM 36.2825 -113.9675 67° East 456 525 22,400 1,320 Climbing Los Angeles Center
08:02PM 36.3408 -113.7861 68° East 472 543 23,800 1,260 Climbing Los Angeles Center
08:03PM 36.3931 -113.6297 67° East 487 560 25,100 1,200 Climbing Los Angeles Center
08:04PM 36.4564 -113.4361 68° East 502 578 26,300 1,200 Climbing Los Angeles Center
08:05PM 36.5044 -113.2867 68° East 510 587 27,600 1,500 Climbing Los Angeles Center
08:07PM 36.5572 -113.1253 68° East 507 583 29,400 1,620 Climbing Los Angeles Center
08:08PM 36.6178 -112.9347 68° East 497 572 31,000 1,380 Climbing Los Angeles Center
08:09PM 36.6686 -112.7750 68° East 499 574 32,300 960 Climbing Los Angeles Center
08:10PM 36.7094 -112.6497 68° East 494 568 33,000 300 Climbing Los Angeles Center
08:11PM 36.7664 -112.4653 69° East 483 556 33,000  Level Los Angeles Center
08:12PM 36.8153 -112.3114 68° East 480 552 33,000  Level Los Angeles Center
08:13PM 36.8728 -112.1253 69° East 483 556 33,000  Level Los Angeles Center
08:14PM 36.9200 -111.9708 69° East 484 557 33,000  Level Denver Center
08:15PM 36.9689 -111.8147 69° East 485 558 33,000  Level Denver Center
08:16PM 37.0258 -111.6283 69° East 483 556 33,000  Level Denver Center
08:17PM 37.0731 -111.4706 69° East 485 558 33,000  Level Denver Center
08:18PM 37.1219 -111.3103 69° East 493 567 33,000  Level Denver Center
08:19PM 37.1689 -111.1500 70° East 492 566 33,000  Level Denver Center
08:20PM 37.2181 -110.9897 69° East 494 568 33,000  Level Denver Center
08:21PM 37.2653 -110.8294 70° East 492 566 33,000  Level Denver Center
08:22PM 37.3228 -110.6356 69° East 496 571 33,000  Level Denver Center
08:24PM 37.3826 -110.4237 70° East  Level FlightAware Approximate
08:25PM 37.4700 -110.1308 71° East 505 581 33,000  Level Denver Center
08:26PM 37.5161 -109.9700 70° East 508 585 33,000  Level Denver Center
08:27PM 37.5697 -109.7842 70° East 505 581 33,000  Level Denver Center
08:28PM 37.6150 -109.6225 70° East 507 583 33,000  Level Denver Center
08:29PM 37.6614 -109.4614 70° East 508 585 33,000  Level Denver Center
08:30PM 37.7153 -109.2708 70° East 514 592 33,000  Level Denver Center
08:31PM 37.6830 -109.3330 71° East  Level FlightAware Approximate
08:31PM 37.7600 -109.1050 71° East 520 598 33,000  Level Denver Center
08:32PM 37.8133 -108.9103 71° East 523 602 33,000  Level Denver Center
08:33PM 37.8483 -108.7439 75° East 515 593 33,000  Level Denver Center
08:35PM 37.8903 -108.5489 75° East 513 590 33,000  Level Denver Center
08:36PM 37.9258 -108.3792 75° East 517 595 33,000  Level Denver Center
08:37PM 37.9681 -108.1800 75° East 521 600 33,000  Level Denver Center
08:38PM 38.0031 -108.0053 76° East 529 609 33,000  Level Denver Center
08:39PM 38.0394 -107.8331 75° East 529 609 33,000  Level Denver Center
08:40PM 38.0811 -107.6275 75° East 527 606 33,000  Level Denver Center
08:41PM 38.1156 -107.4556 76° East 526 605 33,000  Level Denver Center
08:42PM 38.1561 -107.2533 76° East 529 609 33,000  Level Denver Center
08:43PM 38.1892 -107.0875 76° East 528 608 33,100  Climbing Denver Center
08:44PM 38.2253 -106.9031 76° East 536 617 33,000 -60 Descending Denver Center
08:45PM 38.2644 -106.6992 76° East 537 618 33,000  Level Denver Center
08:46PM 38.2992 -106.5211 76° East 541 623 33,000  Level Denver Center
08:47PM 38.3392 -106.3108 76° East 542 624 33,000  Level Denver Center
08:48PM 38.3744 -106.1233 76° East 545 627 33,000  Level Denver Center
08:49PM 38.4092 -105.9361 77° East 545 627 33,000  Level Denver Center
08:50PM 38.4439 -105.7531 76° East 548 631 33,000  Level Denver Center
08:51PM 38.4847 -105.5281 77° East 552 635 33,000  Level Denver Center
08:52PM 38.5200 -105.3383 77° East 547 629 33,000  Level Denver Center
08:53PM 38.5539 -105.1467 77° East 549 632 33,000  Level Denver Center
08:54PM 38.5878 -104.9547 77° East 551 634 33,000  Level Denver Center
08:55PM 38.6219 -104.7650 77° East 547 629 33,000  Level Denver Center
08:56PM 38.6550 -104.5750 77° East 547 629 33,000  Level Denver Center
08:57PM 38.6886 -104.3833 77° East 548 631 33,000  Level Denver Center
08:58PM 38.7214 -104.1919 78° East 548 631 33,000  Level Denver Center
08:59PM 38.7589 -103.9725 78° East 541 623 33,000  Level Denver Center
09:00PM 38.7914 -103.7819 78° East 544 626 33,000  Level Denver Center
09:01PM 38.8319 -103.5961 74° East 538 619 33,000  Level Denver Center
09:02PM 38.9106 -103.4286 59° Northeast 543 625 33,000  Level Denver Center
09:03PM 38.9881 -103.2625 59° Northeast 540 621 33,000  Level Denver Center
09:04PM 39.0661 -103.0967 59° Northeast 537 618 33,000  Level Denver Center
09:05PM 39.1453 -102.9314 58° Northeast 538 619 33,000  Level Denver Center
09:07PM 39.2367 -102.7347 59° Northeast 536 617 33,000  Level Denver Center
09:08PM 39.3231 -102.5508 59° Northeast 537 618 33,000  Level Denver Center
09:09PM 39.4044 -102.3742 59° Northeast 536 617 33,000  Level Denver Center
09:10PM 39.4778 -102.2178 59° Northeast 533 613 33,000  Level Denver Center
09:11PM 39.5497 -102.0583 60° Northeast 535 616 33,000  Level Denver Center
09:12PM 39.6336 -101.8744 59° Northeast 532 612 33,000  Level Denver Center
09:13PM 39.7056 -101.7167 59° Northeast 532 612 33,000  Level Denver Center
09:14PM 39.7889 -101.5317 60° Northeast 531 611 33,000  Level Denver Center
09:15PM 39.8597 -101.3733 60° Northeast 531 611 33,000  Level Denver Center
09:16PM 39.9419 -101.1875 60° Northeast 531 611 33,000  Level Denver Center
09:17PM 40.0131 -101.0292 60° Northeast 531 611 33,000  Level Denver Center
09:18PM 40.0822 -100.8703 60° Northeast 529 609 33,000  Level Denver Center
09:19PM 40.1644 -100.6842 60° Northeast 533 613 33,100 600 Climbing Denver Center
09:20PM 40.2386 -100.5267 58° Northeast 536 617 34,300 900 Climbing Denver Center
09:21PM 40.3344 -100.3519 54° Northeast 531 611 35,000 720 Climbing Denver Center
09:22PM 40.4161 -100.1981 55° Northeast 538 619 35,800 780 Climbing Denver Center
09:23PM 40.5125 -100.0189 55° Northeast 541 623 36,600 540 Climbing Denver Center
09:24PM 40.5939 -99.8636 55° Northeast 541 623 37,000 180 Climbing Denver Center
09:25PM 40.6842 -99.6950 55° Northeast 541 623 37,000  Level Denver Center
09:26PM 40.7694 -99.5322 55° Northeast 539 620 37,000  Level Denver Center
09:27PM 40.8544 -99.3711 55° Northeast 535 616 37,000  Level Denver Center
09:28PM 40.9375 -99.2103 56° Northeast 531 611 37,000  Level Denver Center
09:29PM 41.0044 -99.0828 55° Northeast 530 610 37,000  Level Minneapolis Center
09:30PM 41.0878 -98.9208 56° Northeast 532 612 37,000  Level Minneapolis Center
09:31PM 41.1700 -98.7589 56° Northeast 531 611 37,000  Level Minneapolis Center
09:32PM 41.2539 -98.5950 56° Northeast 534 615 37,000  Level Minneapolis Center
09:33PM 41.3436 -98.4178 56° Northeast 527 606 37,000  Level Minneapolis Center
09:34PM 41.4106 -98.2481 62° Northeast 521 600 37,000  Level Minneapolis Center
09:35PM 41.4722 -98.0569 67° East 514 592 37,000  Level Minneapolis Center
09:36PM 41.5300 -97.8822 66° East 513 590 37,000  Level Minneapolis Center
09:37PM 41.5869 -97.7044 67° East 518 596 37,000  Level Minneapolis Center
09:38PM 41.6433 -97.5289 67° East 517 595 37,000  Level Minneapolis Center
09:39PM 41.6994 -97.3517 67° East 515 593 37,000  Level Minneapolis Center
09:40PM 41.7542 -97.1761 67° East 513 590 37,000  Level Minneapolis Center
09:41PM 41.8106 -97.0008 67° East 512 589 37,000  Level Minneapolis Center
09:42PM 41.8617 -96.8328 68° East 493 567 37,000  Level Minneapolis Center
09:43PM 41.9144 -96.6625 67° East 492 566 37,000  Level Minneapolis Center
09:44PM 41.9775 -96.4572 67° East 493 567 37,000  Level Minneapolis Center
09:45PM 42.0289 -96.2861 68° East 493 567 37,000  Level Minneapolis Center
09:46PM 42.0811 -96.1150 68° East 491 565 37,000  Level Minneapolis Center
09:47PM 42.1342 -95.9397 68° East 499 574 37,000  Level Minneapolis Center
09:48PM 42.1864 -95.7619 68° East 507 583 37,000  Level Minneapolis Center
09:49PM 42.2386 -95.5847 68° East 508 585 37,000  Level Minneapolis Center
09:50PM 42.2906 -95.4067 68° East 509 586 37,000  Level Minneapolis Center
09:51PM 42.3417 -95.2336 68° East 500 575 37,000  Level Minneapolis Center
09:52PM 42.3917 -95.0614 68° East 492 566 37,000  Level Minneapolis Center
09:53PM 42.4417 -94.8892 68° East 491 565 37,000  Level Minneapolis Center
09:54PM 42.4917 -94.7156 69° East 494 568 37,000  Level Minneapolis Center
09:56PM 42.5436 -94.5258 70° East 498 573 37,000  Level Minneapolis Center
09:57PM 42.5931 -94.3514 69° East 500 575 37,000  Level Minneapolis Center
09:58PM 42.6097 -94.1728 83° East 484 557 37,000  Level Minneapolis Center
09:59PM 42.6128 -93.9925 89° East 480 552 37,000  Level Minneapolis Center
10:00PM 42.6136 -93.8158 90° East 475 547 37,000  Level Minneapolis Center
10:01PM 42.6156 -93.6031 89° East 474 545 37,000  Level Minneapolis Center
10:02PM 42.6158 -93.4261 90° East 474 545 37,000  Level Minneapolis Center
10:03PM 42.6156 -93.2522 90° East 468 539 37,000  Level Minneapolis Center
10:04PM 42.6153 -93.0783 90° East 465 535 37,000  Level Minneapolis Center
10:05PM 42.6161 -92.9064 90° East 462 532 37,000  Level Minneapolis Center
10:06PM 42.6147 -92.7303 91° East 469 540 37,000  Level Minneapolis Center
10:07PM 42.6147 -92.5592 90° East 461 531 37,000  Level Minneapolis Center
10:08PM 42.6128 -92.3492 91° East 466 536 37,000  Level Minneapolis Center
10:09PM 42.6119 -92.1750 90° East 467 537 37,000  Level Minneapolis Center
10:09PM 42.6103 -92.1058 92° East 464 534 37,000  Level Chicago Center
10:10PM 42.6086 -91.9314 91° East 468 539 37,000  Level Chicago Center
10:11PM 42.6058 -91.7244 91° East 466 536 37,000  Level Chicago Center
10:12PM 42.6042 -91.5550 91° East 464 534 37,000  Level Chicago Center
10:13PM 42.6017 -91.3869 91° East 458 527 37,000  Level Chicago Center
10:14PM 42.5997 -91.2192 91° East 454 522 37,000  Level Chicago Center
10:15PM 42.5961 -91.0511 92° East 452 520 37,000  Level Chicago Center
10:16PM 42.5922 -90.8483 91° East 454 522 37,000  Level Chicago Center
10:17PM 42.5886 -90.6792 92° East 455 524 37,000  Level Chicago Center
10:18PM 42.5842 -90.5103 92° East 453 521 37,000  Level Chicago Center
10:19PM 42.5811 -90.3400 91° East 455 524 37,000  Level Chicago Center
10:21PM 42.5775 -90.1700 92° East 455 524 37,000  Level Chicago Center
10:22PM 42.5719 -89.9989 92° East 457 526 37,000  Level Chicago Center
10:23PM 42.5667 -89.8003 92° East 453 521 37,000  Level Chicago Center
10:24PM 42.5617 -89.6308 92° East 449 517 37,000  Level Chicago Center
10:25PM 42.5564 -89.4608 92° East 451 519 37,000  Level Chicago Center
10:26PM 42.5494 -89.2925 93° East 447 514 37,000  Level Chicago Center
10:27PM 42.5439 -89.1256 93° East 444 511 37,000  Level Chicago Center
10:28PM 42.5389 -88.9575 92° East 445 512 37,000  Level Chicago Center
10:29PM 42.5308 -88.7619 93° East 446 513 37,000  Level Chicago Center
10:30PM 42.5239 -88.5922 93° East 450 518 37,000  Level Chicago Center
10:31PM 42.5178 -88.4253 93° East 448 516 37,000  Level Chicago Center
10:32PM 42.5114 -88.2561 93° East 451 519 37,000  Level Chicago Center
10:33PM 42.5036 -88.0861 93° East 453 521 37,000  Level Chicago Center
10:34PM 42.4997 -87.9156 92° East 455 524 37,000  Level Chicago Center
10:35PM 42.4994 -87.7453 90° East 457 526 37,000  Level Chicago Center
10:36PM 42.4986 -87.5750 90° East 455 524 37,000  Level Chicago Center
10:37PM 42.4981 -87.4044 90° East 454 522 37,000  Level Chicago Center
10:38PM 42.4969 -87.2019 90° East 452 520 37,000  Level Chicago Center
10:39PM 42.4950 -87.0342 91° East 449 517 37,000  Level Chicago Center
10:40PM 42.4939 -86.8678 90° East 446 513 37,000  Level Chicago Center
10:41PM 42.4933 -86.7025 90° East 443 510 37,000  Level Chicago Center
10:42PM 42.4908 -86.5444 91° East 448 516 37,000  Level Chicago Center
10:43PM 42.4892 -86.3786 91° East 446 513 37,000  Level Chicago Center
10:44PM 42.4856 -86.1781 91° East 447 514 37,000  Level Chicago Center
10:45PM 42.4822 -86.0119 92° East 447 514 37,000  Level Chicago Center
10:46PM 42.4794 -85.8458 91° East 446 513 37,000  Level Chicago Center
10:47PM 42.4761 -85.6786 91° East 448 516 37,000  Level Chicago Center
10:48PM 42.4736 -85.5108 91° East 449 517 37,000  Level Chicago Center
10:49PM 42.4708 -85.3400 91° East 455 524 37,000  Level Chicago Center
10:50PM 42.4667 -85.1700 92° East 456 525 37,000  Level Chicago Center
10:51PM 42.4611 -84.9675 92° East 451 519 37,000  Level Chicago Center
10:52PM 42.4569 -84.7997 92° East 450 518 37,000  Level Chicago Center
10:53PM 42.4525 -84.6319 92° East 449 517 37,000  Level Chicago Center
10:53PM 42.4469 -84.5847 99° East 447 514 37,000  Level Cleveland Center
10:54PM 42.4422 -84.4183 92° East 441 507 37,000  Level Cleveland Center
10:56PM 42.4367 -84.1256 91° East 453 521 37,000  Level Chicago Center
10:57PM 42.4267 -83.9083 93° East 446 513 37,000  Level Cleveland Center
10:58PM 42.4231 -83.7392 92° East 446 513 37,000  Level Cleveland Center
10:59PM 42.4131 -83.5700 95° East 446 513 37,000  Level Cleveland Center
11:00PM 42.4050 -83.3981 94° East 451 519 37,000  Level Cleveland Center
11:01PM 42.4006 -83.2264 92° East 451 519 37,000  Level Cleveland Center
11:02PM 42.3936 -83.0686 93° East 464 534 37,000  Level Cleveland Center
11:03PM 42.3847 -82.8994 94° East 464 534 37,000  Level Cleveland Center
11:04PM 42.3778 -82.7278 93° East 464 534 37,000  Level Cleveland Center
11:05PM 42.3722 -82.5589 92° East 459 528 37,000  Level Cleveland Center
11:06PM 42.3647 -82.3900 93° East 454 522 37,000  Level Cleveland Center
11:07PM 42.3589 -82.2214 93° East 454 522 37,000  Level Cleveland Center
11:08PM 42.3528 -82.0525 93° East 443 510 37,000  Level Cleveland Center
11:09PM 42.3444 -81.8753 94° East 443 510 37,000  Level Cleveland Center
11:10PM 42.3358 -81.7011 94° East 445 512 37,000  Level Cleveland Center
11:11PM 42.3292 -81.5353 93° East 445 512 37,000  Level Cleveland Center
11:12PM 42.3200 -81.3639 94° East 445 512 37,000  Level Cleveland Center
11:13PM 42.3125 -81.2008 94° East 445 512 37,000  Level Cleveland Center
11:14PM 42.3008 -81.0322 95° East 445 512 37,000  Level Cleveland Center
11:15PM 42.2764 -80.8639 101° East 445 512 37,000  Level Cleveland Center
11:16PM 42.2517 -80.6953 101° East 454 522 37,000  Level Cleveland Center
11:17PM 42.2331 -80.5522 100° East 448 516 37,000  Level Cleveland Center
11:18PM 42.2078 -80.3842 101° East 448 516 37,000  Level Cleveland Center
11:19PM 42.1825 -80.2189 102° East 448 516 37,000  Level Cleveland Center
11:20PM 42.1567 -80.0567 102° East 448 516 37,000  Level Cleveland Center
11:21PM 42.1308 -79.8833 101° East 448 516 37,000  Level Cleveland Center
11:22PM 42.1069 -79.7183 101° East 448 516 37,000  Level Cleveland Center
11:23PM 42.0825 -79.5592 102° East 442 509 37,000  Level Cleveland Center
11:24PM 42.0561 -79.3975 102° East 442 509 37,000  Level Cleveland Center
11:25PM 42.0314 -79.2331 101° East 442 509 37,000  Level Cleveland Center
11:26PM 42.0042 -79.0686 103° East 447 514 37,000  Level Cleveland Center
11:27PM 41.9769 -78.9044 103° East 447 514 37,000  Level Cleveland Center
11:28PM 41.9514 -78.7350 101° East 447 514 37,000  Level Cleveland Center
11:29PM 41.9236 -78.5711 103° East 447 514 37,000  Level Cleveland Center
11:30PM 41.8956 -78.4044 103° East 447 514 37,000  Level Cleveland Center
11:31PM 41.8675 -78.2436 103° East 447 514 37,000  Level Cleveland Center
11:33PM 41.8339 -78.0453 103° East 446 513 37,000  Level New York Center
11:34PM 41.8064 -77.8836 103° East 446 513 37,000  Level New York Center
11:35PM 41.7786 -77.7192 103° East 446 513 37,000  Level New York Center
11:36PM 41.7483 -77.5547 104° East 452 520 37,000  Level New York Center
11:37PM 41.7222 -77.3908 102° East 452 520 37,000  Level New York Center
11:38PM 41.6933 -77.2325 104° East 446 513 37,000  Level New York Center
11:39PM 41.6597 -77.0847 107° East 446 513 37,000  Level New York Center
11:40PM 41.6092 -76.8942 109° East 457 526 37,000  Level New York Center
11:41PM 41.5653 -76.7375 110° East 457 526 37,000  Level New York Center
11:42PM 41.5283 -76.6011 110° East 450 518 37,000  Level New York Center
11:43PM 41.4858 -76.4425 110° East 445 512 37,000  Level New York Center
11:44PM 41.4361 -76.2639 110° East 450 518 37,000 -120 Level New York Center
11:45PM 41.3914 -76.0997 110° East 462 532 36,800 -660 Descending New York Center
11:46PM 41.3458 -75.9525 112° Southeast 451 519 35,800 -960 Descending New York Center
11:47PM 41.3025 -75.8000 111° Southeast 441 507 34,900 -960 Descending New York Center
11:48PM 41.2586 -75.6506 111° Southeast 441 507 33,900 -1,980 Descending New York Center
11:49PM 41.2106 -75.5036 113° Southeast 441 507 31,000 -3,060 Descending New York Center
11:50PM 41.1600 -75.3567 115° Southeast 435 501 27,800 -3,000 Descending New York Center
11:51PM 41.1114 -75.2131 114° Southeast 435 501 25,100 -2,400 Descending New York Center
11:52PM 41.0647 -75.0697 113° Southeast 425 489 23,000 -1,200 Descending New York Center
11:53PM 41.0250 -74.9517 114° Southeast 425 489 22,700 -540 Descending New York Center
11:54PM 40.9847 -74.7953 109° East 425 489 22,000 -780 Descending New York Center
11:55PM 40.9689 -74.6431 98° East 419 482 21,200 -840 Descending New York Center
11:56PM 40.9550 -74.4911 97° East 412 474 20,300 -1,140 Descending New York Center
11:57PM 40.9386 -74.3531 99° East 395 455 19,000 -960 Descending New York Center
11:57PM 40.9000 -74.2833 126° Southeast 395 455 19,000 -180 Level New York TRACON
11:58PM 40.8167 -74.1500 130° Southeast 400 460 18,800 -1,140 Descending New York TRACON
11:59PM 40.7500 -74.0500 131° Southeast 387 445 16,500 -2,940 Descending New York TRACON
12:00AM 40.6833 -73.9333 127° Southeast 376 433 13,000 -3,420 Descending New York TRACON
12:01AM 40.6167 -73.8500 136° Southeast 390 449 10,100 -1,740 Descending New York TRACON
12:02AM 40.5333 -73.7833 149° Southeast 287 330 9,600 -1,620 Descending New York TRACON
12:03AM 40.4667 -73.7333 150° Southeast 270 311 6,800 -2,880 Descending New York TRACON
12:04AM 40.4167 -73.7833 217° Southwest 277 319 4,200 -2,400 Descending New York TRACON
12:05AM 40.4500 -73.8667 298° West 227 261 2,000 -1,080 Descending New York TRACON
12:06AM 40.5167 -73.8667 360° North 215 247 2,000 -300 Level New York TRACON
12:07AM 40.5500 -73.8333 37° Northeast 182 209 1,500 -600 Descending New York TRACON
12:08AM 40.5833 -73.8167 21° North 148 170 1,000 -660 Descending New York TRACON